CheckWX is a tool to help pilots better visualize weather data.  It is not intended as a substitute for an official pre-flight weather briefing.

04:52:23 UTC

BIRK METAR
Reykjavik Airport
Reykjavik, Iceland
Current

52 mins ago

BIRK 180400Z 01017KT 350V050 9999 FEW025 08/02 Q1005
Observed
Jun-18 @ 04:00 UTC
Wind
  • 010° at 17 KTS
Visibility
10,000+ meters
Flight Rules
VFR
Cloud Levels
  • Few at 2,500' AGL
Temperature
C / 46°F
Dewpoint
C / 36°F
Humidity
66%
Altimeter
29.68" Hg
Pressure
1004.92 hPa
Previous

2 hours ago

BIRK 180300Z 01021KT 9999 FEW025 08/01 Q1005
Observed
Jun-18 @ 03:00 UTC
Wind
  • 010° at 21 KTS
Visibility
10,000+ meters
Flight Rules
VFR
Cloud Levels
  • Few at 2,500' AGL
Temperature
C / 46°F
Dewpoint
C / 34°F
Humidity
62%
Altimeter
29.68" Hg
Pressure
1004.92 hPa
Previous

3 hours ago

BIRK 180200Z 02014KT 330V090 9999 FEW025 SCT045 10/02 Q1004
Observed
Jun-18 @ 02:00 UTC
Wind
  • 020° at 14 KTS
Visibility
10,000+ meters
Flight Rules
VFR
Cloud Levels
  • Few at 2,500' AGL
  • Scattered at 4,500' AGL
Temperature
10°C / 50°F
Dewpoint
C / 36°F
Humidity
58%
Altimeter
29.65" Hg
Pressure
1003.92 hPa